Time;durP1;ratioP1;P1;durP2;ratioP2;P2;SDS_P1;SDS_P2;PMS_P1;PMS_P2;Temp;Humidity;BMP_temperature;BMP_pressure;BME280_temperature;BME280_humidity;BME280_pressure;Samples;Min_cycle;Max_cycle;Signal;HPM_P1;HPM_P2
2021/11/19 00:01:35;;;;;;;12.65;2.78;;;13.30;99.90;;;;;;5076337;28;20115;-67
2021/11/19 00:04:01;;;;;;;10.82;2.00;;;13.30;99.90;;;;;;5093249;28;20027;-66
2021/11/19 00:06:27;;;;;;;11.18;3.17;;;13.40;99.90;;;;;;5076392;28;20073;-68
2021/11/19 00:08:53;;;;;;;9.43;2.35;;;13.40;99.90;;;;;;5093244;28;20473;-67
2021/11/19 00:11:26;;;;;;;7.35;1.63;;;13.40;99.90;;;;;;5093448;28;20474;-66
2021/11/19 00:13:52;;;;;;;9.43;2.20;;;13.50;99.90;;;;;;5076102;28;20031;-67
2021/11/19 00:16:20;;;;;;;9.10;1.85;;;13.50;99.90;;;;;;5093072;28;20061;-66
2021/11/19 00:18:45;;;;;;;10.05;2.72;;;13.50;99.90;;;;;;5093194;28;20024;-65
2021/11/19 00:21:11;;;;;;;6.45;1.80;;;13.40;99.90;;;;;;5093212;28;20024;-67
2021/11/19 00:23:39;;;;;;;9.93;2.00;;;13.40;99.90;;;;;;5076032;28;20028;-66
2021/11/19 00:26:05;;;;;;;7.95;1.85;;;13.40;99.90;;;;;;5092939;28;20027;-66
2021/11/19 00:28:31;;;;;;;6.82;2.60;;;13.50;99.90;;;;;;5092818;28;20432;-65
2021/11/19 00:30:57;;;;;;;5.40;1.60;;;13.50;99.90;;;;;;5092420;28;20051;-68
2021/11/19 00:33:23;;;;;;;13.68;2.00;;;13.50;99.90;;;;;;5094814;28;20181;-69
2021/11/19 00:35:49;;;;;;;12.85;3.65;;;13.50;99.90;;;;;;5094212;28;20031;-71
2021/11/19 00:38:18;;;;;;;5.60;2.50;;;13.60;99.90;;;;;;5075981;28;20072;-68
2021/11/19 00:40:51;;;;;;;8.23;1.92;;;13.50;99.90;;;;;;5092694;28;20020;-69
2021/11/19 00:43:17;;;;;;;6.57;2.05;;;13.60;99.90;;;;;;5075824;28;20016;-67
2021/11/19 00:45:42;;;;;;;8.13;1.83;;;13.60;99.90;;;;;;5092784;28;20031;-70
2021/11/19 00:48:09;;;;;;;9.25;1.92;;;13.60;99.90;;;;;;5092745;28;20111;-68
2021/11/19 00:51:04;;;;;;;5.95;1.58;;;13.70;99.90;;;;;;5092833;28;20074;-63
2021/11/19 00:53:31;;;;;;;9.38;2.20;;;13.70;99.90;;;;;;5091179;28;20043;-65
2021/11/19 00:55:56;;;;;;;5.10;1.75;;;13.70;99.90;;;;;;5092369;28;20039;-63
2021/11/19 00:58:23;;;;;;;13.15;2.03;;;13.70;99.90;;;;;;5092314;28;20028;-65
2021/11/19 01:00:52;;;;;;;7.20;1.55;;;13.70;99.90;;;;;;5092502;28;20069;-64
2021/11/19 01:03:20;;;;;;;7.72;2.60;;;13.70;99.90;;;;;;5075475;28;20024;-65
2021/11/19 01:05:46;;;;;;;12.45;2.10;;;13.70;99.90;;;;;;5092346;28;20462;-63
2021/11/19 01:08:11;;;;;;;15.13;3.03;;;13.70;99.90;;;;;;5092340;28;20032;-69
2021/11/19 01:10:39;;;;;;;7.10;1.88;;;13.70;99.90;;;;;;5093497;28;20026;-64
2021/11/19 01:13:05;;;;;;;11.88;2.83;;;13.70;99.90;;;;;;5075267;28;20032;-71
2021/11/19 01:15:38;;;;;;;8.98;1.70;;;13.70;99.90;;;;;;5092220;28;20470;-64
2021/11/19 01:18:26;;;;;;;7.43;1.75;;;13.80;99.90;;;;;;5075437;28;20355;-64
2021/11/19 01:20:53;;;;;;;16.85;2.30;;;13.80;99.90;;;;;;5092269;28;20027;-67
2021/11/19 01:23:21;;;;;;;6.63;1.85;;;13.80;99.90;;;;;;5092381;28;20445;-65
2021/11/19 01:25:59;;;;;;;10.40;2.00;;;13.80;99.90;;;;;;5092124;28;20095;-65
2021/11/19 01:28:25;;;;;;;12.05;2.33;;;13.80;99.90;;;;;;5092090;28;20020;-64
2021/11/19 01:30:57;;;;;;;13.00;2.30;;;13.90;99.90;;;;;;5091817;28;20181;-65
2021/11/19 01:33:23;;;;;;;8.75;1.83;;;13.80;99.90;;;;;;5075193;28;20036;-67
2021/11/19 01:35:49;;;;;;;8.35;2.45;;;13.80;99.90;;;;;;5091915;28;20031;-66
2021/11/19 01:38:15;;;;;;;11.80;2.33;;;13.90;99.90;;;;;;5093423;28;20031;-66
2021/11/19 01:40:45;;;;;;;8.68;2.33;;;13.80;99.90;;;;;;5075878;28;20060;-66
2021/11/19 01:43:12;;;;;;;8.75;2.17;;;13.80;99.90;;;;;;5081577;28;20023;-66
2021/11/19 01:45:42;;;;;;;13.15;2.50;;;13.80;99.90;;;;;;5098626;28;20483;-67
2021/11/19 01:48:12;;;;;;;6.32;1.90;;;13.70;99.90;;;;;;5098455;28;20115;-66
2021/11/19 01:50:43;;;;;;;13.10;3.22;;;13.80;99.90;;;;;;5098816;28;20027;-65
2021/11/19 01:53:19;;;;;;;13.65;2.75;;;13.80;99.90;;;;;;5098672;28;20039;-64
2021/11/19 01:55:51;;;;;;;9.57;2.20;;;13.80;99.90;;;;;;5099666;28;20516;-65
2021/11/19 01:58:42;;;;;;;7.38;2.10;;;13.80;99.90;;;;;;5098645;28;20111;-66
2021/11/19 02:01:30;;;;;;;13.63;2.60;;;13.80;99.90;;;;;;5098269;28;20017;-66
2021/11/19 02:04:01;;;;;;;10.57;2.80;;;13.80;99.90;;;;;;5099029;28;20032;-66
2021/11/19 02:06:37;;;;;;;8.98;2.88;;;13.80;99.90;;;;;;5081423;28;20019;-66
2021/11/19 02:09:08;;;;;;;7.60;2.60;;;13.80;99.90;;;;;;5081552;28;20127;-66
2021/11/19 02:11:41;;;;;;;10.32;2.55;;;13.80;99.90;;;;;;5081412;28;20016;-66
2021/11/19 02:14:13;;;;;;;21.25;3.47;;;13.80;99.90;;;;;;5099739;28;20035;-66
2021/11/19 02:16:45;;;;;;;8.98;3.42;;;13.80;99.90;;;;;;5098208;28;20027;-66
2021/11/19 02:19:16;;;;;;;9.35;2.55;;;13.80;99.90;;;;;;5081334;28;20032;-66
2021/11/19 02:21:47;;;;;;;13.80;2.70;;;13.80;99.90;;;;;;5098303;28;20016;-66
2021/11/19 02:24:23;;;;;;;10.52;2.90;;;13.80;99.90;;;;;;5098459;28;20020;-66
2021/11/19 02:26:58;;;;;;;8.88;2.60;;;13.80;99.90;;;;;;5098572;28;20384;-66
2021/11/19 02:29:25;;;;;;;10.23;3.65;;;13.80;99.90;;;;;;5099449;28;20357;-65
2021/11/19 02:32:06;;;;;;;6.72;2.45;;;13.80;99.90;;;;;;5097886;28;20201;-68
2021/11/19 02:34:33;;;;;;;14.85;2.92;;;13.80;99.90;;;;;;5098140;28;20028;-65
2021/11/19 02:37:08;;;;;;;14.02;3.47;;;13.80;99.90;;;;;;5097876;28;20047;-65
2021/11/19 02:39:40;;;;;;;9.05;2.83;;;13.80;99.90;;;;;;5098057;28;20024;-66
2021/11/19 02:42:13;;;;;;;14.07;2.42;;;13.80;99.90;;;;;;5098458;28;20016;-66
2021/11/19 02:44:40;;;;;;;16.33;2.83;;;13.70;99.90;;;;;;5098308;28;20019;-66
2021/11/19 02:47:13;;;;;;;12.10;2.70;;;13.80;99.90;;;;;;5097948;28;20085;-66
2021/11/19 02:49:39;;;;;;;8.45;2.92;;;13.70;99.90;;;;;;5081063;28;20024;-66
2021/11/19 02:52:08;;;;;;;7.10;3.13;;;13.80;99.90;;;;;;5080305;28;20059;-66
2021/11/19 02:54:35;;;;;;;11.32;4.20;;;13.80;99.90;;;;;;5096045;28;20065;-67
2021/11/19 02:57:03;;;;;;;10.77;3.50;;;13.70;99.90;;;;;;5077853;28;20058;-64
2021/11/19 02:59:29;;;;;;;6.10;2.22;;;13.80;99.90;;;;;;5094672;28;20017;-64
2021/11/19 03:01:58;;;;;;;9.95;2.30;;;13.80;99.90;;;;;;5077779;28;20032;-65
2021/11/19 03:04:34;;;;;;;9.73;3.67;;;13.80;99.90;;;;;;5094250;28;20020;-66
2021/11/19 03:07:00;;;;;;;12.10;3.00;;;13.80;99.90;;;;;;5094333;28;20024;-66
2021/11/19 03:09:44;;;;;;;11.80;3.72;;;13.80;99.90;;;;;;5077322;28;20024;-67
2021/11/19 03:12:13;;;;;;;8.60;3.07;;;13.70;99.90;;;;;;5077470;28;20016;-70
2021/11/19 03:14:40;;;;;;;15.77;3.00;;;13.70;99.90;;;;;;5094454;28;20048;-69
2021/11/19 03:17:08;;;;;;;9.48;2.75;;;13.70;99.90;;;;;;5095693;28;20385;-69
2021/11/19 03:19:34;;;;;;;10.48;3.40;;;13.70;99.90;;;;;;5094204;28;20024;-69
2021/11/19 03:22:00;;;;;;;12.88;3.83;;;13.70;99.90;;;;;;5095840;28;20103;-69
2021/11/19 03:24:26;;;;;;;12.82;4.53;;;13.70;99.90;;;;;;5077257;28;20020;-69
2021/11/19 03:26:53;;;;;;;10.38;3.42;;;13.70;99.90;;;;;;5094075;28;20024;-70
2021/11/19 03:29:21;;;;;;;14.52;4.07;;;13.60;99.90;;;;;;5094017;28;20020;-68
2021/11/19 03:31:47;;;;;;;13.15;4.40;;;13.60;99.90;;;;;;5093751;28;20036;-70
2021/11/19 03:34:13;;;;;;;10.38;3.65;;;13.60;99.90;;;;;;5095119;28;20032;-68
2021/11/19 03:36:41;;;;;;;10.10;3.40;;;13.60;99.90;;;;;;5076882;28;20432;-71
2021/11/19 03:39:08;;;;;;;10.30;3.50;;;13.50;99.90;;;;;;5076749;28;20505;-69
2021/11/19 03:41:35;;;;;;;13.43;3.75;;;13.50;99.90;;;;;;5077246;28;20020;-69
2021/11/19 03:44:23;;;;;;;8.35;3.33;;;13.50;99.90;;;;;;5095183;28;20043;-69
2021/11/19 03:46:54;;;;;;;8.93;3.75;;;13.50;99.90;;;;;;5093763;28;20101;-69
2021/11/19 03:49:21;;;;;;;15.88;4.22;;;13.50;99.90;;;;;;5094793;28;20070;-71
2021/11/19 03:51:50;;;;;;;12.07;3.60;;;13.50;99.90;;;;;;5076747;28;20031;-70
2021/11/19 03:54:17;;;;;;;9.82;3.47;;;13.50;99.90;;;;;;5076738;28;20035;-69
2021/11/19 03:56:43;;;;;;;9.68;3.58;;;13.60;99.90;;;;;;5076554;28;20020;-69
2021/11/19 03:59:10;;;;;;;11.95;3.53;;;13.60;99.90;;;;;;5094618;28;20051;-70
2021/11/19 04:01:38;;;;;;;7.95;3.53;;;13.60;99.90;;;;;;5093465;28;20020;-69
2021/11/19 04:04:06;;;;;;;9.57;3.35;;;13.60;99.90;;;;;;5092824;28;20047;-69
2021/11/19 04:06:31;;;;;;;8.85;3.38;;;13.60;99.90;;;;;;5076342;28;20031;-69
2021/11/19 04:08:57;;;;;;;12.07;4.18;;;13.50;99.90;;;;;;5093690;28;20073;-70
2021/11/19 04:11:24;;;;;;;17.70;4.03;;;13.50;99.90;;;;;;5093123;28;20030;-71
2021/11/19 04:13:50;;;;;;;10.05;4.18;;;13.60;99.90;;;;;;5093441;28;20055;-70
2021/11/19 04:16:20;;;;;;;12.95;4.05;;;13.50;99.90;;;;;;5076061;28;20012;-70
2021/11/19 04:18:46;;;;;;;17.15;4.47;;;13.60;99.90;;;;;;5092913;28;20020;-70
2021/11/19 04:21:13;;;;;;;14.45;4.10;;;13.50;99.90;;;;;;5076086;28;20163;-70
2021/11/19 04:23:40;;;;;;;6.43;3.67;;;13.60;99.90;;;;;;5093115;28;20115;-70
2021/11/19 04:26:07;;;;;;;12.25;3.70;;;13.60;99.90;;;;;;5093474;28;20019;-70
2021/11/19 04:28:33;;;;;;;11.77;4.25;;;13.60;99.90;;;;;;5075889;28;20020;-70
2021/11/19 04:31:00;;;;;;;17.63;4.47;;;13.60;99.90;;;;;;5092727;28;20055;-70
2021/11/19 04:33:26;;;;;;;11.88;3.15;;;13.50;99.90;;;;;;5075766;28;20078;-69
2021/11/19 04:35:52;;;;;;;9.82;3.72;;;13.50;99.90;;;;;;5092974;28;20055;-71
2021/11/19 04:38:19;;;;;;;7.97;3.22;;;13.60;99.90;;;;;;5094070;28;20028;-69
2021/11/19 04:40:45;;;;;;;13.30;3.75;;;13.60;99.90;;;;;;5092736;28;20028;-70
2021/11/19 04:43:11;;;;;;;11.57;4.25;;;13.50;99.90;;;;;;5075608;28;20479;-70
2021/11/19 04:45:37;;;;;;;11.02;3.85;;;13.50;99.90;;;;;;5075753;28;20020;-70
2021/11/19 04:48:03;;;;;;;8.15;3.38;;;13.60;99.90;;;;;;5075450;28;20074;-69
2021/11/19 04:50:33;;;;;;;13.98;4.50;;;13.60;99.90;;;;;;5092431;28;20076;-70
2021/11/19 04:52:58;;;;;;;10.80;3.92;;;13.50;99.90;;;;;;5092148;28;20059;-68
2021/11/19 04:55:24;;;;;;;11.27;3.17;;;13.50;99.90;;;;;;5092166;28;20074;-70
2021/11/19 04:57:50;;;;;;;14.27;3.78;;;13.60;99.90;;;;;;5075243;28;20023;-70
2021/11/19 05:00:27;;;;;;;12.77;3.70;;;13.60;99.90;;;;;;5092272;28;20028;-70
2021/11/19 05:02:53;;;;;;;9.77;3.53;;;13.50;99.90;;;;;;5092394;28;20470;-70
2021/11/19 05:05:19;;;;;;;6.63;3.17;;;13.60;99.90;;;;;;5075307;28;20399;-69
2021/11/19 05:07:45;;;;;;;9.02;3.95;;;13.50;99.90;;;;;;5075302;28;20056;-70
2021/11/19 05:10:12;;;;;;;7.75;3.97;;;13.50;99.90;;;;;;5092151;28;20035;-70
2021/11/19 05:12:44;;;;;;;9.68;3.22;;;13.50;99.90;;;;;;5092112;28;20039;-66
2021/11/19 05:15:10;;;;;;;9.30;3.90;;;13.40;99.90;;;;;;5093189;28;20027;-65
2021/11/19 05:17:37;;;;;;;9.73;2.97;;;13.50;99.90;;;;;;5091636;28;20031;-66
2021/11/19 05:20:05;;;;;;;12.55;2.33;;;13.40;99.90;;;;;;5092079;28;20020;-66
2021/11/19 05:22:30;;;;;;;11.05;3.47;;;13.40;99.90;;;;;;5092174;28;20020;-66
2021/11/19 05:24:56;;;;;;;10.68;2.90;;;13.50;99.90;;;;;;5093165;28;20020;-66
2021/11/19 05:27:21;;;;;;;8.30;2.53;;;13.50;99.90;;;;;;5091863;28;20032;-66
2021/11/19 05:29:47;;;;;;;10.75;3.05;;;13.50;99.90;;;;;;5091568;28;20028;-66
2021/11/19 05:32:13;;;;;;;9.00;3.45;;;13.50;99.90;;;;;;5074472;28;20498;-68
2021/11/19 05:34:39;;;;;;;8.15;2.58;;;13.50;99.90;;;;;;5074714;28;20032;-67
2021/11/19 05:37:05;;;;;;;9.63;2.97;;;13.60;99.90;;;;;;5092704;28;20032;-65
2021/11/19 05:39:31;;;;;;;16.98;3.08;;;13.60;99.90;;;;;;5091576;28;20035;-67
2021/11/19 05:41:56;;;;;;;9.10;3.03;;;13.50;99.90;;;;;;5092883;28;20058;-66
2021/11/19 05:44:23;;;;;;;10.30;2.72;;;13.50;99.90;;;;;;5074794;28;20020;-69
2021/11/19 05:46:50;;;;;;;9.45;2.33;;;13.50;99.90;;;;;;5074850;28;20028;-68
2021/11/19 05:49:20;;;;;;;7.60;3.58;;;13.40;99.90;;;;;;5091732;28;20069;-69
2021/11/19 05:51:49;;;;;;;13.00;2.83;;;13.40;99.90;;;;;;5093232;28;20058;-71
2021/11/19 05:54:18;;;;;;;6.43;2.35;;;13.50;99.90;;;;;;5074706;28;20493;-70
2021/11/19 05:56:44;;;;;;;15.65;2.90;;;13.50;99.90;;;;;;5091740;28;20020;-70
2021/11/19 05:59:10;;;;;;;10.77;4.03;;;13.50;99.90;;;;;;5074603;28;20039;-70
2021/11/19 06:01:36;;;;;;;9.25;2.92;;;13.50;99.90;;;;;;5091419;28;20028;-69
2021/11/19 06:04:01;;;;;;;7.78;2.58;;;13.50;99.90;;;;;;5092995;28;20535;-69
2021/11/19 06:06:27;;;;;;;7.13;3.00;;;13.50;99.90;;;;;;5074905;28;20028;-70
2021/11/19 06:08:53;;;;;;;12.10;2.78;;;13.50;99.90;;;;;;5093750;28;20028;-69
2021/11/19 06:11:49;;;;;;;10.48;2.92;;;13.50;99.90;;;;;;5094092;28;20035;-70
2021/11/19 06:14:26;;;;;;;7.25;2.72;;;13.50;99.90;;;;;;5084766;28;20173;-72
2021/11/19 06:17:00;;;;;;;7.30;3.20;;;13.50;99.90;;;;;;5075049;28;20028;-69
2021/11/19 06:19:29;;;;;;;8.73;2.63;;;13.50;99.90;;;;;;5091480;28;20024;-66
2021/11/19 06:22:01;;;;;;;6.80;2.80;;;13.50;99.90;;;;;;5091530;28;20392;-65
2021/11/19 06:24:32;;;;;;;13.45;4.05;;;13.50;99.90;;;;;;5091797;28;20016;-67
2021/11/19 06:26:58;;;;;;;8.60;2.90;;;13.50;99.90;;;;;;5074928;28;20016;-65
2021/11/19 06:29:23;;;;;;;9.68;3.60;;;13.50;99.90;;;;;;5095514;28;20470;-67
2021/11/19 06:31:54;;;;;;;14.82;2.58;;;13.50;99.90;;;;;;5094973;28;20040;-66
2021/11/19 06:34:20;;;;;;;8.15;2.72;;;13.40;99.90;;;;;;5078182;28;20114;-66
2021/11/19 06:36:46;;;;;;;11.02;3.15;;;13.40;99.90;;;;;;5095254;28;20103;-65
2021/11/19 06:39:14;;;;;;;9.88;2.67;;;13.40;99.90;;;;;;5095076;28;20028;-67
2021/11/19 06:41:41;;;;;;;6.18;2.10;;;13.40;99.90;;;;;;5095028;28;20017;-66
2021/11/19 06:44:08;;;;;;;10.40;2.50;;;13.40;99.90;;;;;;5094685;28;20035;-67
2021/11/19 06:46:33;;;;;;;13.90;4.18;;;13.40;99.90;;;;;;5077851;28;20031;-68
2021/11/19 06:48:59;;;;;;;13.50;3.10;;;13.40;99.90;;;;;;5077595;28;20036;-65
2021/11/19 06:51:26;;;;;;;9.77;2.97;;;13.30;99.90;;;;;;5077547;28;20506;-70
2021/11/19 06:53:53;;;;;;;11.85;2.60;;;13.30;99.90;;;;;;5094442;28;20044;-70
2021/11/19 06:56:19;;;;;;;7.93;2.28;;;13.30;99.90;;;;;;5077777;28;20050;-69
2021/11/19 06:58:45;;;;;;;10.13;2.35;;;13.20;99.90;;;;;;5077483;28;20032;-70
2021/11/19 07:01:11;;;;;;;9.00;2.58;;;13.20;99.90;;;;;;5094619;28;20047;-69
2021/11/19 07:03:37;;;;;;;18.02;2.72;;;13.10;99.90;;;;;;5095776;28;20166;-69
2021/11/19 07:06:03;;;;;;;12.68;2.53;;;13.00;99.90;;;;;;5094347;28;20028;-70
2021/11/19 07:08:30;;;;;;;18.40;3.53;;;13.00;99.90;;;;;;5094553;28;20498;-72
2021/11/19 07:10:59;;;;;;;13.13;2.92;;;13.00;99.90;;;;;;5094345;28;20093;-69
2021/11/19 07:13:26;;;;;;;4.53;2.63;;;13.00;99.90;;;;;;5094048;28;20028;-69
2021/11/19 07:15:52;;;;;;;10.57;2.67;;;13.00;99.90;;;;;;5093983;28;20020;-69
2021/11/19 07:18:17;;;;;;;18.42;4.15;;;13.00;99.90;;;;;;5094081;28;20042;-69
2021/11/19 07:20:44;;;;;;;11.52;2.67;;;13.10;99.90;;;;;;5076924;28;20573;-69
2021/11/19 07:23:10;;;;;;;10.50;3.45;;;13.10;99.90;;;;;;5094290;28;20032;-66
2021/11/19 07:25:37;;;;;;;11.68;2.65;;;13.10;99.90;;;;;;5093929;28;20111;-66
2021/11/19 07:28:04;;;;;;;8.48;2.50;;;13.10;99.90;;;;;;5077044;28;20505;-65
2021/11/19 07:30:34;;;;;;;18.23;2.58;;;13.10;99.90;;;;;;5093934;28;20013;-68
2021/11/19 07:33:00;;;;;;;13.50;2.80;;;13.20;99.90;;;;;;5094929;28;20039;-67
2021/11/19 07:35:26;;;;;;;14.85;2.42;;;13.30;99.90;;;;;;5076962;28;20020;-66
2021/11/19 07:37:52;;;;;;;5.97;2.33;;;13.30;99.90;;;;;;5093607;28;20035;-65
2021/11/19 07:40:21;;;;;;;7.03;1.77;;;13.40;99.90;;;;;;5092783;28;20031;-65
2021/11/19 07:42:47;;;;;;;10.68;2.38;;;13.40;99.90;;;;;;5094908;28;20466;-67
2021/11/19 07:45:13;;;;;;;8.60;2.40;;;13.50;99.90;;;;;;5093916;28;20022;-65
2021/11/19 07:47:39;;;;;;;11.52;3.05;;;13.50;99.90;;;;;;5093758;28;20016;-67
2021/11/19 07:50:08;;;;;;;9.23;1.70;;;13.40;99.90;;;;;;5076594;28;20028;-65
2021/11/19 07:52:34;;;;;;;9.95;2.03;;;13.60;99.90;;;;;;5094656;28;20036;-66
2021/11/19 07:54:59;;;;;;;12.35;2.80;;;13.60;99.90;;;;;;5094119;28;20031;-68
2021/11/19 07:57:25;;;;;;;9.80;2.30;;;13.70;99.90;;;;;;5094699;28;20016;-67
2021/11/19 07:59:51;;;;;;;10.43;1.85;;;13.70;99.90;;;;;;5095239;28;20061;-67
2021/11/19 08:02:16;;;;;;;11.82;1.58;;;13.70;99.90;;;;;;5094910;28;20031;-68
2021/11/19 08:04:42;;;;;;;8.10;1.70;;;13.80;99.90;;;;;;5093538;28;20055;-67
2021/11/19 08:07:08;;;;;;;7.88;1.52;;;13.80;99.90;;;;;;5093303;28;20024;-68
2021/11/19 08:09:34;;;;;;;2.30;0.98;;;13.80;99.90;;;;;;5093319;28;20024;-65
2021/11/19 08:12:01;;;;;;;6.03;1.70;;;13.90;99.90;;;;;;5076177;28;20055;-66
2021/11/19 08:14:27;;;;;;;7.40;2.00;;;13.90;99.90;;;;;;5092700;28;20032;-66
2021/11/19 08:16:55;;;;;;;6.45;1.40;;;13.90;99.90;;;;;;5076178;28;20031;-67
2021/11/19 08:19:28;;;;;;;5.72;1.33;;;14.00;99.90;;;;;;5076061;28;20035;-67
2021/11/19 08:21:55;;;;;;;6.45;2.03;;;13.90;99.90;;;;;;5093203;28;20015;-67
2021/11/19 08:24:21;;;;;;;6.60;1.77;;;13.90;99.90;;;;;;5093016;28;20024;-66
2021/11/19 08:26:56;;;;;;;7.85;2.20;;;14.00;99.90;;;;;;5093927;28;20032;-67
2021/11/19 08:29:25;;;;;;;7.80;2.33;;;14.00;99.90;;;;;;5092926;28;20016;-69
2021/11/19 08:31:51;;;;;;;8.45;2.15;;;14.00;99.90;;;;;;5075611;28;20052;-71
2021/11/19 08:34:17;;;;;;;14.90;1.92;;;14.00;99.90;;;;;;5075723;28;20032;-70
2021/11/19 08:36:43;;;;;;;14.77;2.55;;;14.00;99.90;;;;;;5075658;28;20024;-70
2021/11/19 08:39:10;;;;;;;8.73;2.55;;;14.00;99.90;;;;;;5093056;28;20031;-71
2021/11/19 08:41:37;;;;;;;8.25;1.95;;;14.10;99.90;;;;;;5075932;28;20106;-70
2021/11/19 08:44:05;;;;;;;16.02;3.13;;;14.20;99.90;;;;;;5092730;28;20028;-71
2021/11/19 08:46:34;;;;;;;7.60;2.38;;;14.30;99.90;;;;;;5092565;28;20024;-71
2021/11/19 08:49:03;;;;;;;10.65;2.00;;;14.40;99.90;;;;;;5075417;28;20016;-72
2021/11/19 08:51:29;;;;;;;6.50;2.00;;;14.40;99.90;;;;;;5092242;28;20024;-70
2021/11/19 08:54:00;;;;;;;8.88;1.85;;;14.50;99.90;;;;;;5075332;28;20075;-70
2021/11/19 08:56:27;;;;;;;8.57;1.90;;;14.50;99.90;;;;;;5092307;28;20089;-71
2021/11/19 08:58:53;;;;;;;13.50;2.05;;;14.50;99.90;;;;;;5075219;28;20111;-67
2021/11/19 09:01:20;;;;;;;10.93;1.48;;;14.40;99.90;;;;;;5092479;28;20020;-66
2021/11/19 09:03:47;;;;;;;6.45;2.92;;;14.50;99.90;;;;;;5093802;28;20035;-68
2021/11/19 09:06:15;;;;;;;10.35;2.35;;;14.50;99.90;;;;;;5075574;28;20016;-67
2021/11/19 09:08:43;;;;;;;8.55;2.17;;;14.60;99.90;;;;;;5092587;28;20165;-67
2021/11/19 09:11:11;;;;;;;5.30;1.85;;;14.70;99.90;;;;;;5093549;28;20020;-67
2021/11/19 09:13:37;;;;;;;9.48;2.45;;;14.80;99.90;;;;;;5075148;28;20063;-65
2021/11/19 09:16:06;;;;;;;12.57;1.92;;;14.80;99.90;;;;;;5075211;28;20479;-65
2021/11/19 09:18:53;;;;;;;13.52;2.42;;;14.80;99.90;;;;;;5075074;28;20035;-67
2021/11/19 09:21:26;;;;;;;9.07;1.80;;;14.80;99.90;;;;;;5092168;28;20032;-66
2021/11/19 09:23:59;;;;;;;14.00;3.03;;;15.00;99.90;;;;;;5076181;28;20028;-65
2021/11/19 09:26:47;;;;;;;8.00;1.92;;;15.70;99.90;;;;;;5075270;28;20061;-66
2021/11/19 09:29:37;;;;;;;5.78;2.28;;;16.50;99.90;;;;;;5092303;28;20027;-66
2021/11/19 09:32:05;;;;;;;5.85;1.75;;;17.40;99.90;;;;;;5093195;28;20092;-70
2021/11/19 09:34:37;;;;;;;7.05;2.00;;;18.10;99.90;;;;;;5092357;28;20080;-70
2021/11/19 09:37:08;;;;;;;8.30;1.85;;;18.60;99.90;;;;;;5075732;28;20020;-71
2021/11/19 09:39:34;;;;;;;7.60;1.73;;;19.20;99.90;;;;;;5075103;28;20012;-72
2021/11/19 09:42:06;;;;;;;8.77;1.88;;;19.70;99.90;;;;;;5075137;28;20042;-71
2021/11/19 09:44:46;;;;;;;8.95;2.28;;;19.90;99.90;;;;;;5092090;28;20593;-71
2021/11/19 09:47:27;;;;;;;10.45;1.80;;;19.70;99.90;;;;;;5074952;28;20039;-71
2021/11/19 09:50:14;;;;;;;6.45;1.50;;;19.70;99.90;;;;;;5075064;28;20374;-71
2021/11/19 09:53:05;;;;;;;4.65;1.42;;;19.60;99.90;;;;;;5093661;28;20032;-73
2021/11/19 09:55:45;;;;;;;7.80;1.40;;;19.10;99.90;;;;;;5093359;28;20457;-71
2021/11/19 09:58:39;;;;;;;11.50;2.20;;;18.50;99.90;;;;;;5093789;28;20024;-73
2021/11/19 10:01:31;;;;;;;7.35;2.00;;;17.90;99.90;;;;;;5094235;28;20024;-71
2021/11/19 10:04:18;;;;;;;7.88;1.60;;;17.20;99.90;;;;;;5099732;28;20493;-71
2021/11/19 10:07:13;;;;;;;9.60;1.50;;;16.70;99.90;;;;;;5101001;28;20056;-71
2021/11/19 10:09:57;;;;;;;7.72;1.95;;;16.20;99.90;;;;;;5081734;28;20036;-72
2021/11/19 10:12:28;;;;;;;5.57;1.50;;;16.00;99.90;;;;;;5096298;28;20028;-71
2021/11/19 10:15:03;;;;;;;4.60;1.45;;;15.80;99.90;;;;;;5078920;28;20106;-71
2021/11/19 10:17:59;;;;;;;7.47;1.67;;;15.60;99.90;;;;;;5079123;28;20467;-65
2021/11/19 10:20:33;;;;;;;10.80;2.72;;;15.40;99.90;;;;;;5096727;28;20024;-67
2021/11/19 10:23:26;;;;;;;12.63;2.00;;;15.30;99.90;;;;;;5095430;28;20026;-66
2021/11/19 10:26:12;;;;;;;8.52;1.77;;;15.20;99.90;;;;;;5094478;28;20239;-68
2021/11/19 10:28:46;;;;;;;11.05;2.13;;;15.10;99.90;;;;;;5078491;28;20074;-68
2021/11/19 10:31:15;;;;;;;7.22;1.75;;;15.00;99.90;;;;;;5095407;28;20047;-67
2021/11/19 10:33:45;;;;;;;7.85;1.65;;;15.00;99.90;;;;;;5095477;28;20028;-66
2021/11/19 10:36:31;;;;;;;4.25;1.42;;;14.90;99.90;;;;;;5095546;28;20463;-69
2021/11/19 10:39:16;;;;;;;10.05;1.58;;;14.90;99.90;;;;;;5096699;28;20027;-70
2021/11/19 10:41:53;;;;;;;9.20;1.50;;;14.90;99.90;;;;;;5096515;28;20104;-68
2021/11/19 10:45:00;;;;;;;6.18;1.50;;;14.90;99.90;;;;;;5095074;28;20035;-67
2021/11/19 10:47:47;;;;;;;6.75;1.70;;;14.90;99.90;;;;;;5095138;28;20356;-68
2021/11/19 10:50:43;;;;;;;4.07;1.42;;;14.90;99.90;;;;;;5096201;28;20051;-66
2021/11/19 10:53:34;;;;;;;4.75;1.48;;;14.90;99.90;;;;;;5094854;28;20020;-66
2021/11/19 10:56:14;;;;;;;8.93;1.70;;;14.80;99.90;;;;;;5094896;28;20372;-67
2021/11/19 10:58:53;;;;;;;9.02;2.00;;;14.80;99.90;;;;;;5096132;28;20457;-67
2021/11/19 11:01:37;;;;;;;10.35;1.83;;;14.80;99.90;;;;;;5095064;28;20023;-67
2021/11/19 11:04:08;;;;;;;11.45;1.90;;;14.80;99.90;;;;;;5095160;28;20036;-68
2021/11/19 11:06:52;;;;;;;10.00;2.05;;;14.80;99.90;;;;;;5077925;28;20055;-68
2021/11/19 11:09:31;;;;;;;10.50;2.00;;;14.90;99.90;;;;;;5078527;28;20024;-68
2021/11/19 11:12:08;;;;;;;8.75;1.98;;;15.00;99.90;;;;;;5094841;28;20020;-66
2021/11/19 11:14:34;;;;;;;12.20;2.05;;;15.10;99.90;;;;;;5093316;28;20519;-69
2021/11/19 11:17:24;;;;;;;16.23;1.75;;;15.10;99.90;;;;;;5077765;28;20012;-67
2021/11/19 11:19:54;;;;;;;8.23;1.77;;;15.00;99.90;;;;;;5095194;28;20051;-69
2021/11/19 11:22:25;;;;;;;9.52;2.90;;;15.00;99.90;;;;;;5077959;28;20036;-67
2021/11/19 11:24:58;;;;;;;8.52;2.20;;;14.90;99.90;;;;;;5094390;28;20129;-66
2021/11/19 11:27:48;;;;;;;5.20;1.40;;;14.90;99.90;;;;;;5094652;28;20048;-68
2021/11/19 11:30:20;;;;;;;10.30;1.80;;;14.90;99.90;;;;;;5095882;28;20028;-69
2021/11/19 11:33:12;;;;;;;4.97;1.50;;;15.00;99.90;;;;;;5094498;28;20028;-69
2021/11/19 11:35:49;;;;;;;8.00;1.50;;;15.00;99.90;;;;;;5094463;28;20363;-67
2021/11/19 11:38:44;;;;;;;7.00;1.63;;;15.00;99.90;;;;;;5077414;28;20077;-66
2021/11/19 11:41:25;;;;;;;6.57;1.40;;;14.90;99.90;;;;;;5077533;28;20012;-69
2021/11/19 11:44:09;;;;;;;6.03;1.38;;;14.90;99.90;;;;;;5094332;28;20103;-66
2021/11/19 11:46:55;;;;;;;9.87;1.50;;;14.80;99.90;;;;;;5094186;28;20542;-67
2021/11/19 11:49:32;;;;;;;12.52;2.28;;;14.70;99.90;;;;;;5094596;28;20024;-67
2021/11/19 11:52:02;;;;;;;9.45;1.48;;;14.70;99.90;;;;;;5093825;28;20024;-68
2021/11/19 11:54:37;;;;;;;5.65;1.92;;;14.70;99.90;;;;;;5095167;28;20126;-66
2021/11/19 11:57:39;;;;;;;8.10;1.45;;;14.80;99.90;;;;;;5093989;28;20082;-69
2021/11/19 12:00:14;;;;;;;9.60;1.52;;;14.70;99.90;;;;;;5063869;28;20040;-67
2021/11/19 12:02:40;;;;;;;6.13;1.90;;;14.60;99.90;;;;;;5095035;28;20551;-69
2021/11/19 12:05:41;;;;;;;6.63;1.55;;;14.60;99.90;;;;;;5094761;28;20024;-68
2021/11/19 12:08:41;;;;;;;4.95;1.83;;;14.50;99.90;;;;;;5093667;28;20024;-66
2021/11/19 12:11:28;;;;;;;9.13;1.50;;;14.40;99.90;;;;;;5094700;28;20027;-68
2021/11/19 12:14:12;;;;;;;5.80;1.23;;;14.40;99.90;;;;;;5093400;28;20093;-65
2021/11/19 12:16:53;;;;;;;7.70;3.40;;;14.40;99.90;;;;;;5092960;28;20042;-66
2021/11/19 12:19:52;;;;;;;8.00;1.85;;;14.40;99.90;;;;;;5094958;28;20423;-66
2021/11/19 12:22:39;;;;;;;8.93;1.67;;;14.30;99.90;;;;;;5093553;28;20043;-67
2021/11/19 12:25:29;;;;;;;9.18;1.45;;;14.40;99.90;;;;;;5092919;28;20017;-67
2021/11/19 12:27:58;;;;;;;8.07;1.20;;;14.60;99.90;;;;;;5094770;28;20108;-68
2021/11/19 12:31:21;;;;;;;12.65;3.00;;;14.80;99.90;;;;;;5092952;28;20161;-68
2021/11/19 12:33:50;;;;;;;11.50;2.13;;;14.80;99.90;;;;;;4995588;28;20083;-66
2021/11/19 12:36:20;;;;;;;6.93;1.42;;;14.90;99.90;;;;;;5089533;28;20133;-67
2021/11/19 12:38:55;;;;;;;7.80;1.75;;;14.90;99.90;;;;;;5092595;28;20043;-65
2021/11/19 12:41:23;;;;;;;4.43;1.20;;;14.90;99.90;;;;;;5094421;28;20024;-68
2021/11/19 12:44:18;;;;;;;9.32;1.83;;;14.70;99.90;;;;;;5094575;28;20055;-69
2021/11/19 12:47:35;;;;;;;6.88;1.30;;;14.70;99.90;;;;;;5094662;28;20063;-67
2021/11/19 12:50:24;;;;;;;6.72;1.50;;;14.70;99.90;;;;;;5049000;28;20070;-67
2021/11/19 12:53:02;;;;;;;5.30;1.38;;;14.70;99.90;;;;;;5093866;28;20036;-66
2021/11/19 12:55:34;;;;;;;6.93;1.60;;;14.70;99.90;;;;;;5094035;28;20086;-68
2021/11/19 12:58:21;;;;;;;7.13;2.05;;;14.70;99.90;;;;;;5092676;28;20024;-69
2021/11/19 13:01:03;;;;;;;14.00;1.65;;;14.90;99.90;;;;;;5092625;28;20016;-71
2021/11/19 13:03:33;;;;;;;4.10;1.15;;;14.90;99.90;;;;;;5094200;28;20031;-70
2021/11/19 13:06:18;;;;;;;11.45;2.10;;;15.00;99.90;;;;;;5093727;28;20043;-73
2021/11/19 13:08:50;;;;;;;10.00;2.17;;;15.00;99.90;;;;;;5076109;28;20016;-72